Wetterdaten: Woche 07.01.13 - 13.01.13 (KW2)
Datum Zeit Temp. A. Feuchte A. Luftdruck Regen Wind Richtung Taupunkt Windchill Windben
07.01.2013 00:00 6,2 C 85 % 1019,5 hPa 0,8 l/m 11,2 km/h N 3,9 C 2,7 C 24,9 km/h
07.01.2013 01:00 6,3 C 84 % 1019,6 hPa 2,9 l/m 8,9 km/h N 3,8 C 4,3 C 22,1 km/h
07.01.2013 02:00 6,1 C 85 % 1020,0 hPa 3,1 l/m 14,0 km/h N 3,7 C 1,0 C 31,8 km/h
07.01.2013 03:00 5,9 C 85 % 1020,6 hPa 3,1 l/m 11,0 km/h N 3,5 C 2,4 C 25,0 km/h
07.01.2013 04:00 4,8 C 85 % 1021,4 hPa 1,6 l/m 9,9 km/h N 2,5 C 1,9 C 24,5 km/h
07.01.2013 05:00 1,6 C 85 % 1022,8 hPa 1,3 l/m 7,3 km/h N -0,6 C 0,1 C 19,3 km/h
07.01.2013 06:00 0,8 C 85 % 1024,1 hPa 0,0 l/m 1,6 km/h N -1,5 C 0,8 C 6,8 km/h
07.01.2013 07:00 0,6 C 84 % 1025,0 hPa 0,0 l/m 1,0 km/h N -1,8 C 0,6 C 5,2 km/h
07.01.2013 08:00 0,4 C 84 % 1025,8 hPa 0,0 l/m 1,8 km/h N -2,1 C 0,4 C 6,8 km/h
07.01.2013 09:00 0,4 C 83 % 1026,5 hPa 0,0 l/m 1,9 km/h N -2,2 C 0,4 C 6,4 km/h
07.01.2013 10:00 0,4 C 82 % 1027,2 hPa 0,0 l/m 1,3 km/h N -2,3 C 0,4 C 5,6 km/h
07.01.2013 11:00 0,6 C 82 % 1027,4 hPa 0,0 l/m 1,2 km/h N -2,1 C 0,6 C 5,6 km/h
07.01.2013 12:00 0,6 C 83 % 1027,3 hPa 0,0 l/m 1,4 km/h N -2,0 C 0,6 C 6,0 km/h
07.01.2013 13:00 0,8 C 84 % 1027,2 hPa 0,0 l/m 1,3 km/h N -1,7 C 0,8 C 6,0 km/h
07.01.2013 14:00 1,0 C 84 % 1027,3 hPa 0,5 l/m 2,5 km/h N -1,4 C 1,0 C 8,9 km/h
07.01.2013 15:00 1,0 C 85 % 1027,5 hPa 0,3 l/m 2,3 km/h N -1,3 C 1,0 C 6,8 km/h
07.01.2013 16:00 0,9 C 85 % 1027,8 hPa 0,0 l/m 1,8 km/h N -1,4 C 0,9 C 6,4 km/h
07.01.2013 17:00 0,8 C 86 % 1028,2 hPa 0,3 l/m 1,2 km/h N -1,3 C 0,8 C 6,0 km/h
07.01.2013 18:00 0,8 C 86 % 1028,5 hPa 0,0 l/m 1,0 km/h N -1,2 C 0,8 C 5,6 km/h
07.01.2013 19:00 0,8 C 86 % 1028,9 hPa 0,0 l/m 0,1 km/h N -1,3 C 0,8 C 1,2 km/h
07.01.2013 20:00 0,0 C 86 % 1029,2 hPa 0,0 l/m 0,2 km/h N -2,1 C 0,0 C 3,6 km/h
07.01.2013 21:00 -0,6 C 84 % 1029,6 hPa 0,0 l/m 0,0 km/h N -3,0 C -0,6 C 0,8 km/h
07.01.2013 22:00 -0,7 C 84 % 1029,8 hPa 0,0 l/m 0,0 km/h N -3,1 C -0,7 C 0,0 km/h
07.01.2013 23:00 -0,7 C 83 % 1029,8 hPa 0,0 l/m 0,0 km/h N -3,2 C -0,7 C 0,0 km/h
08.01.2013 00:00 -0,7 C 82 % 1029,3 hPa 0,0 l/m 0,3 km/h N -3,5 C -0,7 C 2,0 km/h
08.01.2013 01:00 -0,7 C 81 % 1029,0 hPa 0,0 l/m 0,0 km/h N -3,6 C -0,7 C 0,8 km/h
08.01.2013 02:00 -0,7 C 82 % 1028,9 hPa 0,0 l/m 0,1 km/h N -3,4 C -0,7 C 2,4 km/h
08.01.2013 03:00 -0,7 C 84 % 1028,4 hPa 0,0 l/m 1,3 km/h N -3,1 C -0,7 C 6,4 km/h
08.01.2013 04:00 -0,7 C 85 % 1028,0 hPa 0,0 l/m 1,9 km/h N -2,9 C -0,7 C 6,4 km/h
08.01.2013 05:00 -0,8 C 86 % 1027,6 hPa 0,0 l/m 2,1 km/h N -2,8 C -0,8 C 6,8 km/h
08.01.2013 06:00 -0,9 C 86 % 1027,7 hPa 0,0 l/m 1,8 km/h N -3,0 C -0,9 C 6,4 km/h
08.01.2013 07:00 -0,9 C 85 % 1027,6 hPa 0,0 l/m 2,0 km/h N -3,1 C -0,9 C 7,2 km/h
08.01.2013 08:00 -0,8 C 85 % 1027,5 hPa 0,0 l/m 3,4 km/h N -3,1 C -0,8 C 9,6 km/h
08.01.2013 09:00 -1,0 C 85 % 1027,6 hPa 0,0 l/m 3,5 km/h N -3,3 C -1,0 C 8,4 km/h
08.01.2013 10:00 -1,0 C 84 % 1027,7 hPa 0,0 l/m 2,7 km/h N -3,3 C -1,0 C 7,2 km/h
08.01.2013 11:00 -0,9 C 84 % 1026,8 hPa 0,0 l/m 2,2 km/h N -3,2 C -0,9 C 7,2 km/h
08.01.2013 12:00 -0,7 C 84 % 1025,9 hPa 0,0 l/m 2,7 km/h N -3,0 C -0,7 C 7,2 km/h
08.01.2013 13:00 -0,6 C 85 % 1025,1 hPa 0,0 l/m 2,3 km/h N -2,8 C -0,6 C 6,8 km/h
08.01.2013 14:00 -0,6 C 85 % 1023,9 hPa 0,0 l/m 4,3 km/h N -2,8 C -0,6 C 14,5 km/h
08.01.2013 15:00 -0,5 C 84 % 1024,1 hPa 0,0 l/m 2,6 km/h N -2,8 C -0,5 C 8,9 km/h
08.01.2013 16:00 -0,4 C 84 % 1024,3 hPa 0,0 l/m 2,0 km/h N -2,8 C -0,4 C 6,8 km/h
08.01.2013 17:00 -0,4 C 84 % 1024,0 hPa 0,0 l/m 1,8 km/h N -2,7 C -0,4 C 6,8 km/h
08.01.2013 18:00 -0,3 C 83 % 1024,0 hPa 0,0 l/m 1,3 km/h N -2,7 C -0,3 C 6,4 km/h
08.01.2013 19:00 -0,2 C 83 % 1023,9 hPa 0,0 l/m 1,8 km/h N -2,7 C -0,2 C 7,2 km/h
08.01.2013 20:00 -0,2 C 83 % 1023,6 hPa 0,0 l/m 1,3 km/h N -2,7 C -0,2 C 6,8 km/h
08.01.2013 21:00 -0,1 C 82 % 1023,3 hPa 0,0 l/m 0,2 km/h N -2,8 C -0,1 C 3,6 km/h
08.01.2013 22:00 -0,2 C 82 % 1023,0 hPa 0,0 l/m 0,1 km/h N -2,8 C -0,2 C 2,8 km/h
08.01.2013 23:00 0,8 C 81 % 1022,6 hPa 0,0 l/m 1,6 km/h N -2,2 C 0,8 C 6,8 km/h
09.01.2013 00:00 4,4 C 81 % 1022,1 hPa 0,3 l/m 10,2 km/h N 1,5 C 1,4 C 23,7 km/h
09.01.2013 01:00 5,0 C 85 % 1021,8 hPa 1,0 l/m 13,0 km/h N 2,7 C 0,2 C 27,8 km/h
09.01.2013 02:00 5,2 C 83 % 1021,9 hPa 2,9 l/m 14,4 km/h N 2,6 C -0,3 C 29,0 km/h
09.01.2013 03:00 5,2 C 83 % 1021,7 hPa 1,8 l/m 14,2 km/h N 2,5 C -0,3 C 29,0 km/h
09.01.2013 04:00 5,3 C 82 % 1021,5 hPa 0,3 l/m 14,6 km/h N 2,5 C -0,4 C 29,4 km/h
09.01.2013 05:00 5,3 C 83 % 1021,4 hPa 0,3 l/m 11,6 km/h N 2,6 C 1,5 C 22,9 km/h
09.01.2013 06:00 5,3 C 83 % 1021,6 hPa 0,0 l/m 9,4 km/h N 2,5 C 2,8 C 22,5 km/h
09.01.2013 07:00 5,4 C 82 % 1021,9 hPa 0,0 l/m 7,1 km/h N 2,6 C 4,8 C 17,7 km/h
09.01.2013 08:00 5,7 C 81 % 1022,3 hPa 0,0 l/m 7,3 km/h N 2,7 C 4,7 C 20,5 km/h
09.01.2013 09:00 5,9 C 82 % 1022,5 hPa 0,0 l/m 6,8 km/h N 3,0 C 5,2 C 18,1 km/h
09.01.2013 10:00 6,3 C 82 % 1022,8 hPa 0,0 l/m 4,1 km/h N 3,4 C 6,3 C 13,3 km/h
09.01.2013 11:00 6,8 C 81 % 1022,4 hPa 0,0 l/m 6,7 km/h N 3,7 C 6,3 C 16,1 km/h
09.01.2013 12:00 6,7 C 81 % 1021,7 hPa 0,0 l/m 7,3 km/h N 3,7 C 5,9 C 17,7 km/h
09.01.2013 13:00 7,1 C 80 % 1021,0 hPa 0,0 l/m 2,7 km/h N 4,0 C 7,1 C 8,4 km/h
09.01.2013 14:00 7,2 C 81 % 1020,6 hPa 0,0 l/m 2,0 km/h N 4,1 C 7,2 C 6,4 km/h
09.01.2013 15:00 7,2 C 81 % 1020,0 hPa 0,0 l/m 0,2 km/h N 4,0 C 7,2 C 2,4 km/h
09.01.2013 16:00 6,5 C 83 % 1019,8 hPa 0,0 l/m 2,2 km/h N 3,7 C 6,5 C 7,7 km/h
09.01.2013 17:00 5,9 C 84 % 1018,9 hPa 0,0 l/m 3,5 km/h N 3,4 C 5,9 C 10,1 km/h
09.01.2013 18:00 5,4 C 85 % 1018,1 hPa 0,0 l/m 1,5 km/h N 3,1 C 5,4 C 5,3 km/h
09.01.2013 19:00 5,0 C 85 % 1017,4 hPa 0,0 l/m 2,0 km/h N 2,7 C 5,0 C 7,6 km/h
09.01.2013 20:00 4,2 C 85 % 1016,5 hPa 0,0 l/m 0,8 km/h N 2,0 C 4,2 C 4,4 km/h
09.01.2013 21:00 2,7 C 85 % 1016,0 hPa 0,0 l/m 0,1 km/h N 0,5 C 2,7 C 1,6 km/h
09.01.2013 22:00 2,3 C 85 % 1015,3 hPa 0,0 l/m 0,0 km/h N 0,0 C 2,3 C 1,6 km/h
09.01.2013 23:00 2,7 C 84 % 1014,6 hPa 0,0 l/m 0,0 km/h N 0,1 C 2,7 C 0,0 km/h
10.01.2013 00:00 2,9 C 83 % 1014,0 hPa 0,0 l/m 0,0 km/h N 0,3 C 2,9 C 0,4 km/h
10.01.2013 01:00 3,0 C 83 % 1013,7 hPa 0,0 l/m 0,1 km/h N 0,3 C 3,0 C 0,8 km/h
10.01.2013 02:00 3,0 C 82 % 1013,3 hPa 0,0 l/m 0,3 km/h N 0,2 C 3,0 C 2,8 km/h
10.01.2013 03:00 2,8 C 82 % 1012,6 hPa 0,0 l/m 1,8 km/h N 0,0 C 2,8 C 6,8 km/h
10.01.2013 04:00 2,5 C 82 % 1012,1 hPa 0,0 l/m 2,1 km/h N -0,3 C 2,5 C 8,9 km/h
10.01.2013 05:00 2,3 C 81 % 1011,9 hPa 0,0 l/m 2,1 km/h N -0,6 C 2,3 C 12,9 km/h
10.01.2013 06:00 4,6 C 82 % 1011,8 hPa 0,0 l/m 8,8 km/h N 1,8 C 2,6 C 25,7 km/h
10.01.2013 07:00 4,9 C 78 % 1011,9 hPa 0,0 l/m 9,4 km/h N 1,3 C 2,4 C 26,5 km/h
10.01.2013 08:00 4,8 C 78 % 1012,0 hPa 0,0 l/m 7,3 km/h N 1,3 C 3,7 C 22,5 km/h
10.01.2013 09:00 5,0 C 77 % 1011,9 hPa 0,0 l/m 8,4 km/h N 1,4 C 3,3 C 22,1 km/h
10.01.2013 10:00 5,4 C 77 % 1011,9 hPa 0,0 l/m 10,2 km/h N 1,6 C 2,4 C 25,8 km/h
10.01.2013 11:00 5,7 C 76 % 1011,5 hPa 0,0 l/m 7,7 km/h N 1,7 C 4,5 C 22,9 km/h
10.01.2013 12:00 5,9 C 76 % 1010,7 hPa 0,0 l/m 7,4 km/h N 1,9 C 4,7 C 20,9 km/h
10.01.2013 13:00 6,3 C 71 % 1009,9 hPa 0,0 l/m 10,3 km/h N 1,5 C 3,4 C 26,5 km/h
10.01.2013 14:00 5,6 C 73 % 1009,9 hPa 0,0 l/m 8,4 km/h N 1,1 C 3,9 C 24,1 km/h
10.01.2013 15:00 5,5 C 72 % 1009,9 hPa 0,0 l/m 11,8 km/h N 0,8 C 1,4 C 29,0 km/h
10.01.2013 16:00 5,4 C 72 % 1009,5 hPa 0,0 l/m 10,9 km/h N 0,8 C 2,0 C 28,6 km/h
10.01.2013 17:00 5,3 C 73 % 1009,1 hPa 0,0 l/m 11,5 km/h N 0,9 C 1,5 C 28,5 km/h
10.01.2013 18:00 5,3 C 75 % 1008,8 hPa 0,0 l/m 7,1 km/h N 1,1 C 4,5 C 20,1 km/h
10.01.2013 19:00 5,4 C 72 % 1008,4 hPa 0,0 l/m 6,3 km/h N 0,7 C 4,8 C 17,7 km/h
10.01.2013 20:00 5,7 C 70 % 1008,2 hPa 0,0 l/m 9,9 km/h N 0,6 C 3,1 C 26,1 km/h
10.01.2013 21:00 5,4 C 70 % 1008,3 hPa 0,0 l/m 6,6 km/h N 0,4 C 5,0 C 19,7 km/h
10.01.2013 22:00 4,8 C 71 % 1008,1 hPa 0,0 l/m 5,6 km/h N 0,1 C 4,8 C 18,9 km/h
10.01.2013 23:00 4,6 C 72 % 1008,1 hPa 0,0 l/m 5,3 km/h N -0,0 C 4,6 C 16,1 km/h
11.01.2013 00:00 5,0 C 70 % 1007,9 hPa 0,0 l/m 5,5 km/h N 0,0 C 5,0 C 21,3 km/h
11.01.2013 01:00 4,8 C 69 % 1007,4 hPa 0,0 l/m 9,8 km/h N -0,3 C 2,2 C 21,7 km/h
11.01.2013 02:00 4,5 C 69 % 1007,0 hPa 0,0 l/m 10,1 km/h N -0,7 C 1,4 C 25,3 km/h
11.01.2013 03:00 4,2 C 68 % 1006,6 hPa 0,0 l/m 7,8 km/h N -1,3 C 3,0 C 24,1 km/h
11.01.2013 04:00 3,9 C 69 % 1006,2 hPa 0,0 l/m 6,6 km/h N -1,4 C 3,1 C 23,7 km/h
11.01.2013 05:00 4,1 C 69 % 1006,1 hPa 0,0 l/m 11,3 km/h N -1,1 C 0,2 C 27,0 km/h
11.01.2013 06:00 4,3 C 68 % 1006,3 hPa 0,0 l/m 11,2 km/h N -1,1 C 0,6 C 27,4 km/h
11.01.2013 07:00 4,6 C 65 % 1006,5 hPa 0,0 l/m 17,4 km/h N -1,5 C -2,5 C 37,0 km/h
11.01.2013 08:00 3,6 C 75 % 1007,6 hPa 0,3 l/m 12,8 km/h N -0,5 C -1,2 C 29,4 km/h
11.01.2013 09:00 2,8 C 83 % 1008,3 hPa 0,8 l/m 8,7 km/h N 0,1 C 0,7 C 22,9 km/h
11.01.2013 10:00 0,8 C 85 % 1010,1 hPa 0,0 l/m 8,8 km/h N -1,5 C -1,5 C 24,1 km/h
11.01.2013 11:00 0,3 C 80 % 1010,6 hPa 0,5 l/m 14,7 km/h N -2,7 C -6,4 C 33,8 km/h
11.01.2013 12:00 0,0 C 79 % 1011,0 hPa 0,3 l/m 12,0 km/h N -3,2 C -4,9 C 27,8 km/h
11.01.2013 13:00 0,6 C 72 % 1011,3 hPa 0,0 l/m 9,9 km/h N -4,0 C -2,6 C 23,3 km/h
11.01.2013 14:00 0,6 C 65 % 1012,0 hPa 0,0 l/m 10,7 km/h N -5,2 C -3,3 C 25,7 km/h
11.01.2013 15:00 0,3 C 64 % 1012,7 hPa 0,0 l/m 9,0 km/h N -5,7 C -2,2 C 23,3 km/h
11.01.2013 16:00 0,0 C 63 % 1013,4 hPa 0,0 l/m 10,9 km/h N -6,2 C -4,2 C 25,7 km/h
11.01.2013 17:00 -0,3 C 67 % 1014,2 hPa 0,0 l/m 12,1 km/h N -5,7 C -5,3 C 28,2 km/h
11.01.2013 18:00 -0,7 C 62 % 1015,0 hPa 0,0 l/m 7,6 km/h N -7,0 C -1,9 C 28,1 km/h
11.01.2013 19:00 -0,7 C 61 % 1015,6 hPa 0,0 l/m 9,8 km/h N -7,2 C -4,0 C 22,1 km/h
11.01.2013 20:00 -0,8 C 61 % 1016,1 hPa 0,0 l/m 10,2 km/h N -7,4 C -4,5 C 22,5 km/h
11.01.2013 21:00 -1,0 C 60 % 1016,7 hPa 0,0 l/m 6,3 km/h N -7,7 C -1,8 C 17,7 km/h
11.01.2013 22:00 -1,1 C 62 % 1017,2 hPa 0,0 l/m 4,6 km/h N -7,5 C -1,1 C 13,7 km/h
11.01.2013 23:00 -1,8 C 66 % 1017,4 hPa 0,0 l/m 1,6 km/h N -7,3 C -1,8 C 7,6 km/h
12.01.2013 00:00 -2,4 C 69 % 1017,5 hPa 0,0 l/m 1,0 km/h N -7,4 C -2,4 C 6,4 km/h
12.01.2013 01:00 -2,1 C 71 % 1017,6 hPa 0,0 l/m 4,1 km/h N -6,7 C -2,1 C 11,7 km/h
12.01.2013 02:00 -1,6 C 68 % 1017,8 hPa 0,0 l/m 3,1 km/h N -6,7 C -1,6 C 9,7 km/h
12.01.2013 03:00 -1,8 C 69 % 1017,6 hPa 0,0 l/m 0,6 km/h N -6,8 C -1,8 C 3,6 km/h
12.01.2013 04:00 -1,5 C 65 % 1017,3 hPa 0,0 l/m 2,6 km/h N -7,2 C -1,5 C 8,4 km/h
12.01.2013 05:00 -1,3 C 65 % 1017,1 hPa 0,0 l/m 0,7 km/h N -7,1 C -1,3 C 6,0 km/h
12.01.2013 06:00 -1,4 C 68 % 1017,3 hPa 0,0 l/m 0,5 km/h N -6,5 C -1,4 C 4,4 km/h
12.01.2013 07:00 -1,7 C 73 % 1017,5 hPa 0,0 l/m 1,0 km/h N -5,8 C -1,7 C 5,2 km/h
12.01.2013 08:00 -1,8 C 76 % 1017,8 hPa 0,0 l/m 0,5 km/h N -5,4 C -1,8 C 3,6 km/h
12.01.2013 09:00 -1,2 C 77 % 1017,9 hPa 0,0 l/m 0,6 km/h N -4,7 C -1,2 C 4,4 km/h
12.01.2013 10:00 -0,0 C 74 % 1017,8 hPa 0,0 l/m 1,0 km/h N -4,0 C -0,0 C 5,6 km/h
12.01.2013 11:00 0,7 C 70 % 1017,8 hPa 0,0 l/m 0,4 km/h N -4,2 C 0,7 C 5,2 km/h
12.01.2013 12:00 0,8 C 74 % 1017,3 hPa 0,0 l/m 2,3 km/h N -3,4 C 0,8 C 8,9 km/h
12.01.2013 13:00 -0,2 C 80 % 1017,2 hPa 0,0 l/m 2,9 km/h N -3,2 C -0,2 C 8,9 km/h
12.01.2013 14:00 -0,8 C 83 % 1017,5 hPa 0,0 l/m 0,8 km/h N -3,2 C -0,8 C 3,6 km/h
12.01.2013 15:00 -1,7 C 85 % 1018,5 hPa 0,0 l/m 1,5 km/h N -3,9 C -1,7 C 6,0 km/h
12.01.2013 16:00 -2,0 C 85 % 1018,6 hPa 0,0 l/m 0,5 km/h N -4,1 C -2,0 C 4,4 km/h
12.01.2013 17:00 -2,7 C 86 % 1018,7 hPa 0,0 l/m 0,1 km/h N -4,7 C -2,7 C 0,8 km/h
12.01.2013 18:00 -2,8 C 86 % 1019,0 hPa 0,0 l/m 0,0 km/h N -4,9 C -2,8 C 0,0 km/h
12.01.2013 19:00 -2,5 C 86 % 1019,0 hPa 0,0 l/m 0,0 km/h N -4,5 C -2,5 C 1,2 km/h
12.01.2013 20:00 -2,7 C 86 % 1019,1 hPa 0,0 l/m 0,0 km/h N -4,7 C -2,7 C 0,8 km/h
12.01.2013 21:00 -3,2 C 86 % 1019,3 hPa 0,0 l/m 0,0 km/h N -5,2 C -3,2 C 0,0 km/h
12.01.2013 22:00 -3,5 C 86 % 1019,3 hPa 0,0 l/m 0,0 km/h N -5,5 C -3,5 C 0,0 km/h
12.01.2013 23:00 -3,5 C 86 % 1019,1 hPa 0,0 l/m 0,0 km/h N -5,5 C -3,5 C 0,0 km/h
13.01.2013 00:00 -3,4 C 86 % 1018,9 hPa 0,0 l/m 0,0 km/h N -5,4 C -3,4 C 0,0 km/h
13.01.2013 01:00 -3,4 C 86 % 1018,9 hPa 0,0 l/m 0,0 km/h N -5,4 C -3,4 C 0,0 km/h
13.01.2013 02:00 -3,5 C 86 % 1018,9 hPa 0,0 l/m 0,0 km/h N -5,5 C -3,5 C 0,0 km/h
13.01.2013 03:00 -3,5 C 85 % 1018,8 hPa 0,0 l/m 0,0 km/h N -5,7 C -3,5 C 0,0 km/h
13.01.2013 04:00 -3,5 C 85 % 1018,4 hPa 0,0 l/m 0,0 km/h N -5,6 C -3,5 C 0,0 km/h
13.01.2013 05:00 -3,3 C 85 % 1018,3 hPa 0,0 l/m 0,0 km/h N -5,5 C -3,3 C 0,0 km/h
13.01.2013 06:00 -3,3 C 85 % 1018,5 hPa 0,0 l/m 0,0 km/h N -5,5 C -3,3 C 0,0 km/h
13.01.2013 07:00 -3,3 C 85 % 1018,8 hPa 0,0 l/m 0,0 km/h N -5,5 C -3,3 C 0,0 km/h
13.01.2013 08:00 -3,2 C 84 % 1019,1 hPa 0,0 l/m 0,0 km/h N -5,5 C -3,2 C 0,4 km/h
13.01.2013 09:00 -2,9 C 85 % 1019,2 hPa 0,0 l/m 1,2 km/h N -5,1 C -2,9 C 5,2 km/h
13.01.2013 10:00 -2,7 C 86 % 1019,1 hPa 0,0 l/m 1,6 km/h N -4,7 C -2,7 C 6,4 km/h
13.01.2013 11:00 -2,3 C 84 % 1018,8 hPa 0,0 l/m 2,6 km/h N -4,6 C -2,3 C 8,0 km/h
13.01.2013 12:00 -2,0 C 83 % 1018,2 hPa 0,0 l/m 0,9 km/h N -4,5 C -2,0 C 5,6 km/h
13.01.2013 13:00 -2,2 C 84 % 1018,0 hPa 0,0 l/m 1,2 km/h N -4,6 C -2,2 C 6,4 km/h
13.01.2013 14:00 -2,8 C 85 % 1018,4 hPa 0,0 l/m 1,1 km/h N -5,0 C -2,8 C 6,4 km/h
13.01.2013 15:00 -3,3 C 85 % 1018,5 hPa 0,0 l/m 1,4 km/h N -5,4 C -3,3 C 8,0 km/h
13.01.2013 16:00 -3,6 C 87 % 1018,7 hPa 0,0 l/m 1,3 km/h N -5,4 C -3,6 C 7,2 km/h
13.01.2013 17:00 -3,8 C 86 % 1018,8 hPa 0,0 l/m 0,8 km/h N -5,7 C -3,8 C 5,6 km/h
13.01.2013 18:00 -3,8 C 86 % 1018,7 hPa 0,0 l/m 0,3 km/h N -5,8 C -3,8 C 4,0 km/h
13.01.2013 19:00 -3,4 C 86 % 1018,4 hPa 0,0 l/m 1,8 km/h N -5,4 C -3,4 C 8,4 km/h
13.01.2013 20:00 -3,3 C 86 % 1018,2 hPa 0,0 l/m 1,1 km/h N -5,3 C -3,3 C 6,8 km/h
13.01.2013 21:00 -3,0 C 85 % 1018,0 hPa 0,0 l/m 2,2 km/h N -5,1 C -3,0 C 9,3 km/h
13.01.2013 22:00 -2,9 C 85 % 1017,9 hPa 0,0 l/m 2,0 km/h N -5,1 C -2,9 C 8,9 km/h
13.01.2013 23:00 -3,0 C 85 % 1017,9 hPa 0,0 l/m 2,3 km/h N -5,1 C -3,0 C 10,1 km/h
Min-Datum _ 13.01.13 11.01.13 11.01.13 - 07.01.13 - 11.01.13 11.01.13 07.01.13
_ Min-Zeit 17:15 20:45 04:45 - 19:15 - 21:30 11:15 19:15
Minimum _ -3,8 C 60 % 1006,0 hPa - 0,0 km/h - -7,8 C -7,5 C 0,0 km/h
Max-Datum _ 09.01.13 13.01.13 07.01.13 07.01.13 11.01.13 - 09.01.13 09.01.13 11.01.13
_ Max-Zeit 13:30 16:00 23:00 02:00 07:00 - 14:00 13:30 18:15
Maximum _ 7,2 C 92 % 1029,9 hPa 3,1 l/m 18,8 km/h
N
- 4,2 C 7,2 C 45,1 km/h
N
Durchschnitt _ 1,1 C 80 % 1018,6 hPa #22,1 l/m 4,2 km/h N -2,0 C 0,2 C 11,8 km/h